Time;durP1;ratioP1;P1;durP2;ratioP2;P2;SDS_P1;SDS_P2;PMS_P1;PMS_P2;Temp;Humidity;BMP_temperature;BMP_pressure;BME280_temperature;BME280_humidity;BME280_pressure;Samples;Min_cycle;Max_cycle;Signal;HPM_P1;HPM_P2
2022/09/19 00:00:43;;;;;;;17.10;2.37;;;;;;;9.92;93.99;102000.50;5046112;28;20336;-69
2022/09/19 00:03:09;;;;;;;18.37;2.33;;;;;;;9.92;94.66;101997.75;5020881;28;20037;-70
2022/09/19 00:05:39;;;;;;;18.60;1.67;;;;;;;9.84;94.97;101995.84;5047591;28;20980;-70
2022/09/19 00:08:05;;;;;;;16.58;2.05;;;;;;;9.93;95.16;102003.03;5048270;28;20622;-71
2022/09/19 00:10:30;;;;;;;26.10;2.47;;;;;;;9.96;94.76;102007.31;5029248;28;20025;-70
2022/09/19 00:12:55;;;;;;;16.67;2.03;;;;;;;9.94;94.73;102003.91;5050992;28;20065;-70
2022/09/19 00:15:22;;;;;;;12.10;2.10;;;;;;;9.95;95.65;101994.66;5048438;28;20023;-70
2022/09/19 00:17:49;;;;;;;19.50;2.15;;;;;;;10.13;93.96;102003.66;5049928;28;20029;-71
2022/09/19 00:20:15;;;;;;;16.35;1.85;;;;;;;10.02;95.64;102002.06;5050692;28;20365;-71
2022/09/19 00:24:45;;;;;;;18.53;2.63;;;;;;;10.04;96.70;102004.66;5052185;28;20044;-70
2022/09/19 00:25:25;;;;;;;13.27;2.30;;;;;;;10.09;96.24;102010.50;5049911;28;20093;-71
2022/09/19 00:27:51;;;;;;;24.47;2.63;;;;;;;9.99;97.10;102010.59;5026827;28;20057;-70
2022/09/19 00:30:16;;;;;;;13.40;2.00;;;;;;;10.02;97.00;102013.00;5029651;28;20116;-70
2022/09/19 00:32:41;;;;;;;15.70;2.08;;;;;;;10.04;97.40;102012.88;5042078;28;20032;-70
2022/09/19 00:35:08;;;;;;;15.97;2.87;;;;;;;9.98;97.34;102011.63;5046217;28;20127;-70
2022/09/19 00:37:33;;;;;;;11.95;1.65;;;;;;;9.96;98.15;102010.06;5032074;28;20017;-71
2022/09/19 00:39:58;;;;;;;9.67;1.70;;;;;;;10.02;97.21;102018.47;5040523;28;20369;-71
2022/09/19 00:42:25;;;;;;;18.25;2.72;;;;;;;10.00;98.68;102019.66;5048651;28;20492;-72
2022/09/19 00:45:03;;;;;;;6.55;1.52;;;;;;;9.95;98.87;102014.69;5046760;28;20111;-70
2022/09/19 00:47:35;;;;;;;13.65;1.70;;;;;;;10.00;97.71;102015.06;5049487;28;20036;-70
2022/09/19 00:50:05;;;;;;;10.45;1.80;;;;;;;9.90;98.28;102008.00;5049306;28;20112;-71
2022/09/19 00:52:39;;;;;;;15.20;2.35;;;;;;;9.87;98.38;102014.66;5050697;28;20036;-70
2022/09/19 00:55:04;;;;;;;13.55;2.10;;;;;;;9.73;98.61;102007.06;5048928;28;20033;-71
2022/09/19 00:57:39;;;;;;;13.07;1.97;;;;;;;9.74;98.32;102008.78;5049115;28;20020;-71
2022/09/19 01:00:08;;;;;;;13.27;3.13;;;;;;;9.67;98.69;102015.06;5046993;28;20039;-72
2022/09/19 01:02:33;;;;;;;13.18;1.63;;;;;;;9.57;98.96;102015.19;5049295;28;20032;-74
2022/09/19 01:05:01;;;;;;;14.50;2.13;;;;;;;9.51;98.73;102014.97;5047595;28;20027;-74
2022/09/19 01:08:05;;;;;;;16.88;2.45;;;;;;;9.41;98.94;102012.38;5051363;28;20033;-74
2022/09/19 01:11:06;;;;;;;22.67;1.95;;;;;;;9.32;99.71;102012.44;4997009;28;20048;-75
2022/09/19 01:13:45;;;;;;;11.10;1.85;;;;;;;9.25;99.89;102012.25;5031576;28;20025;-75
2022/09/19 01:16:20;;;;;;;13.57;2.10;;;;;;;9.20;100.00;102019.22;5046617;28;20029;-73
2022/09/19 01:19:18;;;;;;;13.60;2.17;;;;;;;9.11;100.00;102021.03;5023777;28;20164;-74
2022/09/19 01:22:02;;;;;;;12.40;2.10;;;;;;;9.08;99.88;102015.03;5004520;28;20095;-75
2022/09/19 01:24:37;;;;;;;13.95;2.60;;;;;;;9.05;100.00;102026.25;5026373;28;20103;-74
2022/09/19 01:27:44;;;;;;;7.57;1.83;;;;;;;9.00;100.00;102017.69;5051332;28;20499;-74
2022/09/19 01:30:15;;;;;;;7.35;1.27;;;;;;;9.00;100.00;102020.41;5039503;28;20432;-73
2022/09/19 01:32:52;;;;;;;13.98;1.70;;;;;;;8.98;100.00;102027.91;5031649;28;20037;-74
2022/09/19 01:35:24;;;;;;;21.38;3.05;;;;;;;9.08;100.00;102021.31;5029887;28;20079;-74
2022/09/19 01:38:08;;;;;;;8.98;1.63;;;;;;;9.15;100.00;102024.28;5046020;28;20032;-74
2022/09/19 01:40:35;;;;;;;15.88;1.95;;;;;;;9.20;100.00;102016.47;5048239;28;20048;-74
2022/09/19 01:43:01;;;;;;;18.92;2.40;;;;;;;9.37;100.00;102023.75;5047859;28;20032;-76
2022/09/19 01:45:39;;;;;;;8.70;1.53;;;;;;;9.54;100.00;102028.31;5048355;28;20388;-75
2022/09/19 01:48:14;;;;;;;5.53;1.92;;;;;;;9.59;100.00;102023.22;5045884;28;20090;-74
2022/09/19 01:50:52;;;;;;;13.85;1.65;;;;;;;9.59;100.00;102023.22;5050311;28;20029;-74
2022/09/19 01:53:17;;;;;;;21.73;2.35;;;;;;;9.57;100.00;102022.53;5048718;28;20423;-75
2022/09/19 01:56:05;;;;;;;19.10;1.93;;;;;;;9.55;100.00;102030.06;5030780;28;20087;-75
2022/09/19 01:58:40;;;;;;;12.68;1.80;;;;;;;9.51;100.00;102028.66;5047718;28;20025;-74
2022/09/19 02:01:22;;;;;;;20.98;2.10;;;;;;;9.46;100.00;102029.13;5046578;28;20127;-73
2022/09/19 02:04:03;;;;;;;12.75;1.60;;;;;;;9.48;100.00;102035.31;5047750;28;20429;-74
2022/09/19 02:06:56;;;;;;;10.43;1.73;;;;;;;9.46;100.00;102036.47;5034624;28;20028;-75
2022/09/19 02:09:36;;;;;;;5.28;1.52;;;;;;;9.45;100.00;102046.53;5032431;28;20040;-74
2022/09/19 02:12:03;;;;;;;14.80;2.60;;;;;;;9.41;100.00;102039.72;5043893;28;20028;-74
2022/09/19 02:14:32;;;;;;;14.15;2.00;;;;;;;9.36;100.00;102033.88;5047713;28;20037;-74
2022/09/19 02:17:04;;;;;;;16.65;2.10;;;;;;;9.27;100.00;102043.00;5032754;28;20482;-75
2022/09/19 02:19:33;;;;;;;18.70;2.30;;;;;;;9.30;100.00;102045.41;5045854;28;20511;-75
2022/09/19 02:22:08;;;;;;;13.32;2.22;;;;;;;9.19;100.00;102042.09;5048901;28;20484;-74
2022/09/19 02:24:37;;;;;;;14.32;2.30;;;;;;;9.13;100.00;102045.47;5047701;28;20390;-73
2022/09/19 02:27:09;;;;;;;15.27;1.88;;;;;;;9.06;100.00;102042.50;5037245;28;20032;-75
2022/09/19 02:29:38;;;;;;;8.38;2.10;;;;;;;9.02;100.00;102040.25;5045846;28;20025;-74
2022/09/19 02:32:07;;;;;;;17.48;2.63;;;;;;;8.99;100.00;102040.56;5031232;28;20097;-74
2022/09/19 02:34:33;;;;;;;16.95;2.80;;;;;;;9.04;100.00;102035.47;5046269;28;20021;-73
2022/09/19 02:37:01;;;;;;;11.63;2.35;;;;;;;9.03;100.00;102047.44;5030404;28;20017;-75
2022/09/19 02:39:46;;;;;;;14.73;2.17;;;;;;;8.94;100.00;102042.91;5044099;28;20413;-75
2022/09/19 02:42:22;;;;;;;16.65;1.65;;;;;;;8.98;100.00;102047.03;5047098;28;20025;-74
2022/09/19 02:45:07;;;;;;;16.15;2.00;;;;;;;8.94;100.00;102045.63;5047395;28;20021;-75
2022/09/19 02:47:47;;;;;;;19.08;2.35;;;;;;;8.89;100.00;102042.50;5048393;28;20021;-74
2022/09/19 02:50:33;;;;;;;15.63;2.53;;;;;;;8.82;100.00;102038.72;5042735;28;20052;-74
2022/09/19 02:53:03;;;;;;;12.63;2.20;;;;;;;8.78;100.00;102045.50;5025813;28;20029;-74
2022/09/19 02:55:34;;;;;;;19.25;1.58;;;;;;;8.68;100.00;102037.38;5029248;28;20075;-74
2022/09/19 02:58:02;;;;;;;12.85;1.73;;;;;;;8.64;100.00;102043.31;5038690;28;20388;-75
2022/09/19 03:00:32;;;;;;;10.32;2.30;;;;;;;8.59;100.00;102043.78;5045546;28;20427;-74
2022/09/19 03:04:11;;;;;;;19.80;2.15;;;;;;;8.54;100.00;102048.00;5047907;28;20025;-74
2022/09/19 03:05:54;;;;;;;9.93;1.52;;;;;;;8.45;100.00;102049.78;5048371;28;20041;-75
2022/09/19 03:08:24;;;;;;;10.35;2.53;;;;;;;8.40;100.00;102049.38;5041057;28;20029;-75
2022/09/19 03:10:53;;;;;;;12.75;2.33;;;;;;;8.32;100.00;102048.44;5048239;28;20033;-74
2022/09/19 03:13:22;;;;;;;13.90;2.22;;;;;;;8.28;100.00;102050.59;5046387;28;20093;-74
2022/09/19 03:16:01;;;;;;;9.30;1.48;;;;;;;8.23;100.00;102050.19;5047740;28;20037;-75
2022/09/19 03:18:28;;;;;;;12.25;2.10;;;;;;;8.21;100.00;102041.31;5048437;28;20033;-75
2022/09/19 03:20:59;;;;;;;8.20;1.63;;;;;;;8.18;100.00;102044.28;5029687;28;20025;-75
2022/09/19 03:23:31;;;;;;;6.28;1.63;;;;;;;8.14;100.00;102042.03;5046422;28;20090;-74
2022/09/19 03:25:57;;;;;;;9.95;2.85;;;;;;;8.09;100.00;102038.91;5030473;28;20028;-75
2022/09/19 03:28:22;;;;;;;10.83;2.43;;;;;;;8.10;100.00;102040.63;5047199;28;20422;-74
2022/09/19 03:30:48;;;;;;;12.30;1.83;;;;;;;8.11;100.00;102040.47;5010651;28;20481;-74
2022/09/19 03:33:15;;;;;;;11.10;1.80;;;;;;;8.07;100.00;102040.94;5038896;28;20047;-73
2022/09/19 03:35:42;;;;;;;16.23;2.47;;;;;;;8.06;100.00;102041.94;5044858;28;20087;-74
2022/09/19 03:38:07;;;;;;;18.17;1.70;;;;;;;8.03;100.00;102045.84;5048632;28;20423;-76
2022/09/19 03:40:33;;;;;;;11.30;1.63;;;;;;;7.98;100.00;102041.84;5047976;28;20282;-76
2022/09/19 03:42:58;;;;;;;13.90;1.92;;;;;;;7.97;100.00;102049.19;5044395;28;20031;-75
2022/09/19 03:45:24;;;;;;;10.77;2.83;;;;;;;7.98;100.00;102050.88;5050463;28;20040;-75
2022/09/19 03:47:49;;;;;;;14.93;2.55;;;;;;;7.92;100.00;102047.91;5047677;28;20025;-75
2022/09/19 03:50:15;;;;;;;11.47;2.60;;;;;;;7.91;100.00;102059.81;5049932;28;20028;-75
2022/09/19 03:52:40;;;;;;;11.45;2.60;;;;;;;7.84;100.00;102059.56;5051169;28;20037;-75
2022/09/19 03:55:06;;;;;;;15.15;1.77;;;;;;;7.84;100.00;102053.25;5051387;28;20029;-75
2022/09/19 03:57:32;;;;;;;12.80;2.23;;;;;;;7.88;100.00;102062.84;5049938;28;20036;-76
2022/09/19 03:59:57;;;;;;;22.23;3.10;;;;;;;7.86;100.00;102059.41;5050092;28;20285;-75
2022/09/19 04:02:22;;;;;;;7.90;1.90;;;;;;;7.83;100.00;102059.69;5048663;28;20180;-75
2022/09/19 04:04:48;;;;;;;13.15;3.35;;;;;;;7.85;100.00;102061.28;5050686;28;20025;-75
2022/09/19 04:07:15;;;;;;;10.05;2.03;;;;;;;7.91;100.00;102065.28;5051914;28;20044;-74
2022/09/19 04:09:40;;;;;;;4.60;1.25;;;;;;;7.94;100.00;102059.50;5045529;28;20035;-74
2022/09/19 04:12:06;;;;;;;5.87;1.53;;;;;;;7.91;100.00;102062.56;5042517;28;20025;-74
2022/09/19 04:14:32;;;;;;;9.37;1.90;;;;;;;7.95;100.00;102066.72;5028835;28;20477;-74
2022/09/19 04:16:57;;;;;;;18.17;6.07;;;;;;;7.98;100.00;102067.25;5045189;28;20087;-74
2022/09/19 04:19:26;;;;;;;16.70;4.03;;;;;;;7.95;100.00;102063.97;5032105;28;20086;-74
2022/09/19 04:21:52;;;;;;;10.80;3.33;;;;;;;7.90;100.00;102069.03;5039397;28;20034;-75
2022/09/19 04:24:18;;;;;;;11.55;2.50;;;;;;;7.85;100.00;102074.06;5026437;28;20025;-74
2022/09/19 04:26:43;;;;;;;8.23;3.00;;;;;;;7.81;100.00;102072.66;5031250;28;20025;-75
2022/09/19 04:29:09;;;;;;;15.25;3.10;;;;;;;7.80;100.00;102071.78;5049542;28;20025;-73
2022/09/19 04:31:41;;;;;;;14.63;3.03;;;;;;;7.80;100.00;102084.56;5048640;28;20025;-75
2022/09/19 04:34:08;;;;;;;13.25;2.97;;;;;;;7.75;100.00;102075.97;5049954;28;20063;-74
2022/09/19 04:36:34;;;;;;;11.40;2.63;;;;;;;7.72;100.00;102084.44;5035471;28;20029;-75
2022/09/19 04:39:03;;;;;;;11.68;2.42;;;;;;;7.72;100.00;102084.44;5052582;28;20087;-75
2022/09/19 04:41:33;;;;;;;8.20;2.35;;;;;;;7.72;100.00;102087.16;5049461;28;20033;-74
2022/09/19 04:43:59;;;;;;;7.07;1.90;;;;;;;7.71;100.00;102091.78;5051208;28;20480;-75
2022/09/19 04:46:24;;;;;;;8.52;1.85;;;;;;;7.75;100.00;102095.91;5048798;28;20159;-74
2022/09/19 04:48:51;;;;;;;8.13;1.88;;;;;;;7.75;100.00;102097.78;5049992;28;20063;-74
2022/09/19 04:51:17;;;;;;;;;;;;;;;7.80;100.00;102099.03;5013948;28;20030;-74
2022/09/19 04:53:42;;;;;;;15.98;2.25;;;;;;;7.81;100.00;102095.34;5050707;28;19932;-75
2022/09/19 04:56:07;;;;;;;12.37;1.60;;;;;;;7.82;100.00;102091.59;5049915;28;20482;-75
2022/09/19 04:58:33;;;;;;;10.25;1.90;;;;;;;7.86;100.00;102097.59;5023467;28;20017;-75
2022/09/19 05:00:58;;;;;;;7.82;2.03;;;;;;;7.91;100.00;102095.28;5048940;28;20029;-74
2022/09/19 05:03:26;;;;;;;5.70;2.43;;;;;;;7.95;100.00;102100.28;5041402;28;20037;-74
2022/09/19 05:05:53;;;;;;;10.43;2.53;;;;;;;7.92;100.00;102089.69;5043772;28;20447;-75
2022/09/19 05:08:27;;;;;;;6.43;1.70;;;;;;;7.92;100.00;102099.72;5050268;28;20024;-76
2022/09/19 05:10:58;;;;;;;9.00;1.55;;;;;;;7.93;100.00;102096.84;5023765;28;20072;-74
2022/09/19 05:13:25;;;;;;;11.00;2.72;;;;;;;7.93;100.00;102104.16;5043876;28;20108;-76
2022/09/19 05:15:51;;;;;;;8.27;1.45;;;;;;;7.87;100.00;102100.19;5046820;28;20044;-75
2022/09/19 05:18:21;;;;;;;13.95;1.90;;;;;;;7.91;100.00;102103.47;5045801;28;20067;-75
2022/09/19 05:20:48;;;;;;;15.63;2.25;;;;;;;7.81;100.00;102100.78;5029141;28;20124;-75
2022/09/19 05:23:14;;;;;;;12.82;1.73;;;;;;;7.80;100.00;102106.38;5049785;28;20091;-75
2022/09/19 05:25:40;;;;;;;8.30;2.03;;;;;;;7.79;100.00;102105.50;5049393;28;20433;-76
2022/09/19 05:28:07;;;;;;;13.48;2.05;;;;;;;7.82;100.00;102109.81;5048294;28;20132;-73
2022/09/19 05:30:34;;;;;;;5.55;2.05;;;;;;;7.83;100.00;102109.66;5020617;28;20033;-75
2022/09/19 05:32:59;;;;;;;11.85;2.75;;;;;;;7.79;100.00;102113.69;5036691;28;20036;-75
2022/09/19 05:35:26;;;;;;;9.90;2.58;;;;;;;7.77;100.00;102117.56;5045418;28;20396;-74
2022/09/19 05:37:51;;;;;;;10.13;1.75;;;;;;;7.79;100.00;102121.03;5048889;28;20021;-74
2022/09/19 05:40:18;;;;;;;9.67;2.83;;;;;;;7.85;100.00;102118.56;5029357;28;20530;-73
2022/09/19 05:42:46;;;;;;;11.18;2.53;;;;;;;7.88;100.00;102125.56;5046588;28;20035;-73
2022/09/19 05:45:12;;;;;;;6.93;1.92;;;;;;;7.89;100.00;102121.84;5048661;28;20035;-73
2022/09/19 05:47:39;;;;;;;10.73;2.50;;;;;;;7.95;100.00;102121.28;5044748;28;20108;-74
2022/09/19 05:50:07;;;;;;;6.93;1.80;;;;;;;7.95;100.00;102127.56;5044845;28;20044;-74
2022/09/19 05:55:17;;;;;;;7.88;4.10;;;;;;;8.17;100.00;102126.34;5046999;28;20503;-74
2022/09/19 05:57:42;;;;;;;13.87;3.57;;;;;;;8.24;100.00;102127.47;5050475;28;20060;-74
2022/09/19 06:00:08;;;;;;;12.67;4.43;;;;;;;8.34;100.00;102139.22;5045468;28;20396;-74
2022/09/19 06:02:33;;;;;;;14.50;3.53;;;;;;;8.43;100.00;102133.69;5048412;28;20063;-74
2022/09/19 06:04:58;;;;;;;14.93;4.28;;;;;;;8.54;100.00;102141.69;5043207;28;20083;-74
2022/09/19 06:07:23;;;;;;;12.23;3.40;;;;;;;8.59;100.00;102139.34;5045344;28;20568;-74
2022/09/19 06:09:52;;;;;;;10.60;3.22;;;;;;;8.72;100.00;102139.00;5042629;28;20091;-74
2022/09/19 06:12:18;;;;;;;10.98;3.47;;;;;;;8.85;100.00;102142.19;5036625;28;20060;-74
2022/09/19 06:14:43;;;;;;;12.20;2.67;;;;;;;9.00;100.00;102137.91;5045016;28;20120;-75
2022/09/19 06:17:08;;;;;;;15.15;2.47;;;;;;;9.08;100.00;102130.66;5048192;28;20029;-74
2022/09/19 06:19:34;;;;;;;10.50;2.72;;;;;;;9.36;99.59;102139.63;5042755;28;20524;-74
2022/09/19 06:22:00;;;;;;;17.00;2.20;;;;;;;9.49;100.00;102142.81;5049967;28;20033;-74
2022/09/19 06:24:25;;;;;;;13.80;2.30;;;;;;;9.69;98.49;102147.94;5045133;28;20036;-75
2022/09/19 06:26:54;;;;;;;14.97;2.77;;;;;;;9.84;96.33;102143.59;5038074;28;20025;-73
2022/09/19 06:29:19;;;;;;;10.98;2.03;;;;;;;10.02;96.00;102154.47;5042854;28;20032;-74
2022/09/19 06:31:44;;;;;;;10.40;1.80;;;;;;;10.00;97.80;102151.94;5046169;28;20025;-74
2022/09/19 06:34:12;;;;;;;12.45;2.35;;;;;;;10.09;98.15;102152.88;5046865;28;20033;-74
2022/09/19 06:36:37;;;;;;;16.67;2.30;;;;;;;10.19;97.46;102156.34;5031689;28;20396;-74
2022/09/19 06:39:03;;;;;;;8.33;2.33;;;;;;;10.29;96.02;102159.78;5048141;28;20031;-74
2022/09/19 06:41:30;;;;;;;14.82;2.08;;;;;;;10.46;95.85;102158.88;5047883;28;20048;-75
2022/09/19 06:43:56;;;;;;;16.15;2.30;;;;;;;10.61;92.80;102159.94;5045567;28;20400;-74
2022/09/19 06:46:21;;;;;;;13.57;2.17;;;;;;;10.68;96.23;102163.75;5042358;28;20104;-74
2022/09/19 06:48:48;;;;;;;12.50;2.03;;;;;;;10.91;91.44;102168.47;5046789;28;20032;-74
2022/09/19 06:51:14;;;;;;;16.00;2.53;;;;;;;10.99;92.74;102167.63;5046320;28;20052;-75
2022/09/19 06:53:39;;;;;;;11.93;2.63;;;;;;;11.07;94.38;102181.34;5046099;28;20037;-74
2022/09/19 06:56:04;;;;;;;12.00;2.03;;;;;;;11.18;91.67;102173.66;5032200;28;20547;-74
2022/09/19 06:58:30;;;;;;;16.38;2.88;;;;;;;11.36;89.67;102171.63;5035415;28;20033;-75
2022/09/19 07:00:55;;;;;;;13.87;2.00;;;;;;;11.34;91.88;102173.69;5044700;28;20365;-75
2022/09/19 07:03:20;;;;;;;27.08;2.60;;;;;;;11.44;91.69;102170.78;5047395;28;20029;-74
2022/09/19 07:05:47;;;;;;;56.20;3.53;;;;;;;11.50;91.42;102175.56;5045608;28;20033;-75
2022/09/19 07:08:13;;;;;;;19.08;3.65;;;;;;;11.58;90.60;102168.19;5042530;28;20035;-71
2022/09/19 07:10:39;;;;;;;12.55;2.80;;;;;;;11.65;89.27;102180.25;5017098;28;20037;-75
2022/09/19 07:13:05;;;;;;;10.17;2.73;;;;;;;11.89;85.66;102168.38;5012305;28;20026;-74
2022/09/19 07:15:33;;;;;;;10.05;2.90;;;;;;;11.87;90.13;102170.44;5051134;28;20032;-75
2022/09/19 07:17:59;;;;;;;9.15;2.13;;;;;;;11.91;87.09;102180.06;5049127;28;20040;-74
2022/09/19 07:20:26;;;;;;;24.27;3.37;;;;;;;11.95;86.26;102178.69;5047408;28;20021;-75
2022/09/19 07:23:06;;;;;;;9.15;1.83;;;;;;;12.00;83.26;102176.28;5033414;28;20083;-74
2022/09/19 07:25:33;;;;;;;13.10;1.83;;;;;;;11.91;84.08;102180.06;5050977;28;20021;-75
2022/09/19 07:28:00;;;;;;;13.27;2.07;;;;;;;11.83;86.15;102185.53;5050274;28;20444;-75
2022/09/19 07:30:26;;;;;;;14.70;2.10;;;;;;;11.93;83.02;102188.97;5047843;28;20652;-75
2022/09/19 07:32:57;;;;;;;21.37;2.03;;;;;;;11.98;83.44;102186.56;5050353;28;20025;-75
2022/09/19 07:35:27;;;;;;;14.13;2.33;;;;;;;12.04;86.14;102188.59;5047517;28;20035;-75
2022/09/19 07:37:54;;;;;;;13.45;2.20;;;;;;;12.22;81.65;102195.63;5051780;28;20029;-75
2022/09/19 07:40:19;;;;;;;20.60;3.67;;;;;;;12.37;80.79;102198.50;5047731;28;20060;-74
2022/09/19 07:42:44;;;;;;;10.83;1.73;;;;;;;12.39;83.49;102204.69;5032044;28;20039;-74
2022/09/19 07:45:10;;;;;;;17.03;2.30;;;;;;;12.67;80.20;102195.84;5047528;28;20025;-74
2022/09/19 07:47:41;;;;;;;13.03;2.90;;;;;;;12.79;77.70;102197.16;5031885;28;20059;-75
2022/09/19 07:50:07;;;;;;;10.32;1.83;;;;;;;12.80;78.40;102200.78;5047759;28;20094;-74
2022/09/19 07:52:32;;;;;;;114.73;10.93;;;;;;;12.89;79.09;102205.19;5049127;28;20388;-75
2022/09/19 07:54:57;;;;;;;75.00;8.40;;;;;;;12.92;79.85;102202.09;5034788;28;20024;-74
2022/09/19 07:57:22;;;;;;;18.00;2.87;;;;;;;13.02;78.03;102214.59;5030506;28;20761;-74
2022/09/19 07:59:48;;;;;;;8.70;1.60;;;;;;;13.16;78.23;102218.47;5050180;28;20029;-73
2022/09/19 08:02:14;;;;;;;6.80;1.80;;;;;;;13.32;76.10;102211.00;5044574;28;20538;-73
2022/09/19 08:04:39;;;;;;;11.40;1.97;;;;;;;13.33;75.86;102217.34;5047733;28;21235;-76
2022/09/19 08:07:06;;;;;;;13.93;1.77;;;;;;;13.42;76.05;102224.50;5049537;28;20495;-74
2022/09/19 08:09:31;;;;;;;7.15;1.52;;;;;;;13.60;74.13;102219.59;5047496;28;20082;-74
2022/09/19 08:12:00;;;;;;;11.47;2.43;;;;;;;13.83;71.26;102220.44;5024238;28;20033;-74
2022/09/19 08:14:25;;;;;;;6.07;1.15;;;;;;;13.91;73.31;102220.34;5049567;28;20021;-74
2022/09/19 08:16:51;;;;;;;11.17;1.77;;;;;;;14.08;73.35;102232.97;5051024;28;20430;-74
2022/09/19 08:19:16;;;;;;;11.53;1.60;;;;;;;14.34;72.26;102228.75;5047964;28;20108;-72
2022/09/19 08:21:41;;;;;;;9.20;1.53;;;;;;;14.56;71.04;102227.81;5030873;28;20113;-74
2022/09/19 08:24:07;;;;;;;14.47;2.37;;;;;;;14.74;74.42;102238.47;5046976;28;20083;-73
2022/09/19 08:26:33;;;;;;;11.55;1.80;;;;;;;15.01;70.44;102241.41;5020993;28;20020;-74
2022/09/19 08:28:58;;;;;;;7.73;1.93;;;;;;;15.09;68.04;102243.19;5047961;28;20048;-74
2022/09/19 08:31:25;;;;;;;9.60;1.30;;;;;;;15.16;71.66;102238.63;5049953;28;20045;-73
2022/09/19 08:33:50;;;;;;;7.15;1.75;;;;;;;15.07;70.54;102251.69;5047318;28;20364;-75
2022/09/19 08:36:16;;;;;;;12.17;1.90;;;;;;;15.05;69.53;102248.25;5049574;28;20045;-74
2022/09/19 08:38:42;;;;;;;8.55;1.50;;;;;;;15.05;69.64;102244.66;5043266;28;20025;-74
2022/09/19 08:41:30;;;;;;;13.73;2.37;;;;;;;15.05;69.14;102252.94;5045132;28;20033;-74
2022/09/19 08:44:14;;;;;;;16.52;1.95;;;;;;;14.98;70.47;102258.34;5023658;28;20036;-73
2022/09/19 08:46:46;;;;;;;10.02;1.77;;;;;;;14.93;69.32;102262.72;5045528;28;20140;-73
2022/09/19 08:49:21;;;;;;;8.80;2.20;;;;;;;14.96;70.98;102262.34;5046088;28;20037;-74
2022/09/19 08:52:01;;;;;;;18.05;1.65;;;;;;;14.85;71.50;102257.31;5039343;28;20033;-73
2022/09/19 08:54:38;;;;;;;9.20;2.15;;;;;;;14.72;70.78;102248.84;5025527;28;20024;-73
2022/09/19 08:57:07;;;;;;;5.03;1.30;;;;;;;14.92;68.73;102256.34;5050585;28;20053;-74
2022/09/19 08:59:36;;;;;;;9.82;1.70;;;;;;;15.16;67.29;102258.78;5042997;28;20060;-74
2022/09/19 09:02:44;;;;;;;8.77;1.90;;;;;;;15.39;68.24;102261.47;5025268;28;20028;-74
2022/09/19 09:05:20;;;;;;;12.23;1.40;;;;;;;15.64;67.66;102260.06;5019068;28;20060;-74
2022/09/19 09:08:16;;;;;;;13.05;1.80;;;;;;;15.77;67.90;102272.09;5046462;28;20511;-74
2022/09/19 09:10:51;;;;;;;11.15;1.50;;;;;;;15.77;67.17;102254.66;5045971;28;20108;-73
2022/09/19 09:13:21;;;;;;;7.20;1.50;;;;;;;16.00;64.18;102260.88;5047577;28;20053;-73
2022/09/19 09:16:02;;;;;;;17.02;2.47;;;;;;;16.23;64.96;102265.09;5048963;28;20033;-73
2022/09/19 09:18:49;;;;;;;9.77;1.80;;;;;;;16.26;64.33;102261.06;5030493;28;20075;-73
2022/09/19 09:21:27;;;;;;;6.27;1.60;;;;;;;16.32;62.49;102257.53;5050203;28;20059;-73
2022/09/19 09:24:02;;;;;;;40.97;5.43;;;;;;;16.28;62.98;102259.81;5047610;28;20040;-74
2022/09/19 09:26:36;;;;;;;20.73;2.28;;;;;;;16.35;63.19;102257.13;5051099;28;20029;-74
2022/09/19 09:29:25;;;;;;;17.77;1.67;;;;;;;16.03;59.36;102253.03;5047190;28;20029;-74
2022/09/19 09:31:58;;;;;;;9.00;1.50;;;;;;;16.01;63.39;102265.34;5049535;28;20040;-73
2022/09/19 09:34:28;;;;;;;11.88;2.10;;;;;;;16.08;64.00;102263.47;5047798;28;20515;-74
2022/09/19 09:37:04;;;;;;;10.60;2.08;;;;;;;16.10;60.87;102275.19;5037902;28;20377;-73
2022/09/19 09:39:59;;;;;;;9.13;2.05;;;;;;;16.07;61.87;102267.31;5040325;28;20032;-74
2022/09/19 09:42:33;;;;;;;11.82;1.73;;;;;;;16.00;58.57;102264.47;5020177;28;20060;-74
2022/09/19 09:45:20;;;;;;;28.67;1.83;;;;;;;16.05;62.28;102269.41;5040675;28;20047;-75
2022/09/19 09:48:05;;;;;;;7.55;2.10;;;;;;;16.08;58.54;102269.88;5040760;28;20053;-75
2022/09/19 09:51:07;;;;;;;7.32;2.05;;;;;;;16.37;60.72;102268.81;5027988;28;20040;-74
2022/09/19 09:54:01;;;;;;;12.90;1.63;;;;;;;16.69;64.45;102265.47;5020672;28;20087;-74
2022/09/19 09:56:54;;;;;;;10.85;1.75;;;;;;;16.80;62.59;102259.41;5040145;28;20712;-74
2022/09/19 10:05:36;;;;;;;5.43;1.75;;;;;;;16.62;58.51;102275.66;5044486;28;20594;-73
2022/09/19 10:08:02;;;;;;;16.02;2.40;;;;;;;16.63;59.99;102274.59;5044144;28;20082;-73
2022/09/19 10:10:31;;;;;;;16.00;2.43;;;;;;;16.67;60.73;102275.91;5022228;28;20575;-73
2022/09/19 10:13:09;;;;;;;6.88;1.75;;;;;;;16.70;61.63;102273.59;5049343;28;20039;-74
2022/09/19 10:15:39;;;;;;;6.40;1.20;;;;;;;16.61;59.50;102272.06;5046054;28;20033;-74
2022/09/19 10:18:14;;;;;;;17.17;1.42;;;;;;;16.58;59.51;102268.81;5026944;28;20056;-73
2022/09/19 10:20:49;;;;;;;9.40;1.70;;;;;;;16.66;59.19;102265.91;5042472;28;20028;-73
2022/09/19 10:23:19;;;;;;;10.40;1.50;;;;;;;16.85;58.69;102273.47;5041047;28;20040;-73
2022/09/19 10:25:48;;;;;;;11.55;2.33;;;;;;;17.24;56.05;102273.72;5046835;28;20029;-73
2022/09/19 10:28:24;;;;;;;8.95;1.33;;;;;;;17.18;57.48;102263.47;5050056;28;20061;-73
2022/09/19 10:30:56;;;;;;;11.00;1.63;;;;;;;17.21;58.50;102274.09;5029725;28;20476;-74
2022/09/19 10:33:38;;;;;;;10.65;1.60;;;;;;;17.19;58.75;102265.16;5048468;28;20136;-74
2022/09/19 10:36:07;;;;;;;7.45;1.92;;;;;;;17.38;58.11;102270.81;5045944;28;20070;-74
2022/09/19 10:38:46;;;;;;;5.65;1.42;;;;;;;17.82;58.07;102268.38;5046637;28;20075;-73
2022/09/19 10:41:12;;;;;;;9.90;1.77;;;;;;;18.10;55.45;102268.22;5038834;28;20437;-73
2022/09/19 10:43:48;;;;;;;4.13;1.20;;;;;;;18.18;57.56;102281.88;5040820;28;20068;-72
2022/09/19 10:46:35;;;;;;;12.32;1.88;;;;;;;18.37;52.92;102278.31;5041608;28;20094;-74
2022/09/19 10:49:03;;;;;;;8.13;1.75;;;;;;;17.73;53.14;102282.66;5040294;28;20380;-74
2022/09/19 10:51:44;;;;;;;7.45;1.13;;;;;;;18.06;53.20;102295.53;5044854;28;20036;-72
2022/09/19 10:54:19;;;;;;;11.85;1.60;;;;;;;18.67;54.43;102274.88;5039564;28;20033;-73
2022/09/19 10:56:45;;;;;;;8.57;1.55;;;;;;;18.50;53.55;102283.84;5046377;28;20025;-73
2022/09/19 10:59:11;;;;;;;9.63;1.20;;;;;;;18.73;52.20;102278.72;5047754;28;20108;-73
2022/09/19 11:01:38;;;;;;;5.80;1.60;;;;;;;19.29;50.96;102275.19;5046409;28;20120;-72
2022/09/19 11:04:09;;;;;;;9.98;1.55;;;;;;;19.16;48.60;102279.91;5042538;28;20484;-73
2022/09/19 11:06:35;;;;;;;9.50;1.70;;;;;;;19.37;51.28;102286.03;5039892;28;20040;-73
2022/09/19 11:09:21;;;;;;;7.87;1.47;;;;;;;19.51;48.07;102279.38;5036708;28;20101;-73
2022/09/19 11:11:48;;;;;;;7.82;1.63;;;;;;;19.52;49.51;102286.63;5028802;28;20039;-73
2022/09/19 11:14:37;;;;;;;7.72;1.38;;;;;;;19.04;50.25;102290.00;5029202;28;20033;-73
2022/09/19 11:17:21;;;;;;;7.00;1.10;;;;;;;19.37;51.05;102276.88;5029498;28;20402;-74
2022/09/19 11:20:30;;;;;;;4.70;1.13;;;;;;;18.61;49.37;102277.66;5048486;28;20102;-74
2022/09/19 11:23:03;;;;;;;9.60;1.10;;;;;;;18.17;53.28;102281.03;4969369;28;20045;-74
2022/09/19 11:26:06;;;;;;;5.53;1.45;;;;;;;17.55;51.01;102285.19;5029948;28;20033;-74
2022/09/19 11:28:59;;;;;;;8.52;1.60;;;;;;;17.53;53.22;102281.75;5049416;28;20021;-74
2022/09/19 11:32:03;;;;;;;8.68;1.30;;;;;;;18.15;49.54;102274.00;5031412;28;20044;-74
2022/09/19 11:34:39;;;;;;;5.32;1.48;;;;;;;17.67;51.34;102280.72;5049585;28;20036;-73
2022/09/19 11:37:34;;;;;;;9.85;1.20;;;;;;;17.25;51.18;102275.41;5049797;28;20107;-74
2022/09/19 11:40:27;;;;;;;7.45;1.50;;;;;;;17.96;51.66;102284.00;5049642;28;20040;-74
2022/09/19 11:43:31;;;;;;;9.77;2.20;;;;;;;17.94;53.28;102276.97;5049465;28;20488;-74
2022/09/19 11:46:12;;;;;;;12.75;1.75;;;;;;;18.12;52.60;102271.63;5031561;28;20055;-74
2022/09/19 11:48:48;;;;;;;4.63;1.38;;;;;;;18.39;50.57;102277.03;5049515;28;20082;-74
2022/09/19 11:51:51;;;;;;;9.30;1.30;;;;;;;18.73;47.95;102267.63;5031568;28;20029;-74